Time,TemperatureF,DewpointF,PressureIn,WindDirection,WindDirectionDegrees,WindSpeedMPH,WindSpeedGustMPH,Humidity,HourlyPrecipIn,Conditions,Clouds,dailyrainin,SoftwareType,DateUTC
2013-05-10 00:04:00,37.7,29.0,30.21,ENE,66,0.0,1.0,70,0.00,,,0.00,weatherlink.com 1.10,2013-05-10 08:04:00,
2013-05-10 00:19:00,37.6,27.0,30.22,ENE,67,0.0,0.0,66,0.00,,,0.00,weatherlink.com 1.10,2013-05-10 08:19:00,
2013-05-10 00:34:00,37.8,28.0,30.22,ENE,66,0.0,1.0,69,0.00,,,0.00,weatherlink.com 1.10,2013-05-10 08:34:00,
2013-05-10 00:49:00,38.0,27.0,30.21,ENE,66,0.0,1.0,64,0.00,,,0.00,weatherlink.com 1.10,2013-05-10 08:49:00,
2013-05-10 01:04:00,38.2,28.0,30.21,ENE,65,0.0,0.0,67,0.00,,,0.00,weatherlink.com 1.10,2013-05-10 09:04:00,
2013-05-10 01:19:00,38.1,27.0,30.22,ENE,65,0.0,1.0,65,0.00,,,0.00,weatherlink.com 1.10,2013-05-10 09:19:00,
2013-05-10 01:34:00,38.0,27.0,30.21,North,359,0.0,0.0,66,0.00,,,0.00,weatherlink.com 1.10,2013-05-10 09:34:00,
2013-05-10 01:49:00,38.3,29.0,30.21,North,4,0.0,0.0,69,0.00,,,0.00,weatherlink.com 1.10,2013-05-10 09:49:00,
2013-05-10 02:04:00,38.4,26.0,30.22,NNW,340,0.0,0.0,61,0.00,,,0.00,weatherlink.com 1.10,2013-05-10 10:04:00,
2013-05-10 02:19:00,38.6,29.0,30.21,NNW,336,0.0,0.0,68,0.00,,,0.00,weatherlink.com 1.10,2013-05-10 10:19:00,
2013-05-10 02:34:00,38.3,29.0,30.21,NNE,33,0.0,0.0,68,0.00,,,0.00,weatherlink.com 1.10,2013-05-10 10:34:00,
2013-05-10 02:49:00,38.3,28.0,30.21,NNE,33,0.0,0.0,67,0.00,,,0.00,weatherlink.com 1.10,2013-05-10 10:49:00,
2013-05-10 03:04:00,38.7,28.0,30.21,ENE,65,0.0,0.0,66,0.00,,,0.00,weatherlink.com 1.10,2013-05-10 11:04:00,
2013-05-10 03:19:00,38.3,29.0,30.20,ENE,65,0.0,0.0,68,0.00,,,0.00,weatherlink.com 1.10,2013-05-10 11:19:00,
2013-05-10 03:34:00,38.0,28.0,30.20,North,357,0.0,0.0,67,0.00,,,0.00,weatherlink.com 1.10,2013-05-10 11:34:00,
2013-05-10 03:49:00,37.7,29.0,30.20,North,357,0.0,0.0,71,0.00,,,0.00,weatherlink.com 1.10,2013-05-10 11:49:00,
2013-05-10 04:04:00,37.6,29.0,30.20,North,357,0.0,0.0,72,0.00,,,0.00,weatherlink.com 1.10,2013-05-10 12:04:00,
2013-05-10 04:19:00,37.1,29.0,30.20,North,357,0.0,0.0,72,0.00,,,0.00,weatherlink.com 1.10,2013-05-10 12:19:00,
2013-05-10 04:34:00,36.9,29.0,30.20,North,357,0.0,0.0,72,0.00,,,0.00,weatherlink.com 1.10,2013-05-10 12:34:00,
2013-05-10 04:49:00,36.5,29.0,30.20,North,357,0.0,0.0,74,0.00,,,0.00,weatherlink.com 1.10,2013-05-10 12:49:00,
2013-05-10 05:04:00,36.1,28.0,30.20,North,357,0.0,0.0,73,0.00,,,0.00,weatherlink.com 1.10,2013-05-10 13:04:00,
2013-05-10 05:19:00,35.7,28.0,30.20,North,357,0.0,0.0,74,0.00,,,0.00,weatherlink.com 1.10,2013-05-10 13:19:00,
2013-05-10 05:34:00,34.7,28.0,30.20,North,357,0.0,0.0,77,0.00,,,0.00,weatherlink.com 1.10,2013-05-10 13:34:00,
2013-05-10 05:49:00,34.6,28.0,30.19,North,357,0.0,0.0,76,0.00,,,0.00,weatherlink.com 1.10,2013-05-10 13:49:00,
2013-05-10 06:04:00,34.7,28.0,30.19,North,357,0.0,0.0,75,0.00,,,0.00,weatherlink.com 1.10,2013-05-10 14:04:00,
2013-05-10 06:19:00,34.5,28.0,30.19,North,357,0.0,0.0,78,0.00,,,0.00,weatherlink.com 1.10,2013-05-10 14:19:00,
2013-05-10 06:35:00,34.4,28.0,30.19,North,357,0.0,0.0,76,0.00,,,0.00,weatherlink.com 1.10,2013-05-10 14:35:00,
2013-05-10 06:50:00,34.8,28.0,30.18,North,357,0.0,0.0,77,0.00,,,0.00,weatherlink.com 1.10,2013-05-10 14:50:00,
2013-05-10 07:05:00,35.3,29.0,30.18,North,357,0.0,0.0,77,0.00,,,0.00,weatherlink.com 1.10,2013-05-10 15:05:00,
2013-05-10 07:20:00,36.4,30.0,30.18,North,357,0.0,0.0,76,0.00,,,0.00,weatherlink.com 1.10,2013-05-10 15:20:00,
2013-05-10 07:35:00,38.6,30.0,30.18,North,357,0.0,0.0,70,0.00,,,0.00,weatherlink.com 1.10,2013-05-10 15:35:00,
2013-05-10 07:50:00,40.3,29.0,30.18,North,357,0.0,0.0,65,0.00,,,0.00,weatherlink.com 1.10,2013-05-10 15:50:00,
2013-05-10 08:05:00,41.9,31.0,30.18,North,357,0.0,0.0,65,0.00,,,0.00,weatherlink.com 1.10,2013-05-10 16:05:00,
2013-05-10 08:20:00,43.1,29.0,30.18,ESE,117,0.0,0.0,57,0.00,,,0.00,weatherlink.com 1.10,2013-05-10 16:20:00,
2013-05-10 08:35:00,43.9,28.0,30.17,ESE,117,0.0,0.0,55,0.00,,,0.00,weatherlink.com 1.10,2013-05-10 16:35:00,
2013-05-10 08:50:00,45.0,30.0,30.17,East,101,0.0,0.0,55,0.00,,,0.00,weatherlink.com 1.10,2013-05-10 16:50:00,
2013-05-10 09:05:00,46.7,25.0,30.17,WNW,292,0.0,3.0,43,0.00,,,0.00,weatherlink.com 1.10,2013-05-10 17:05:00,
2013-05-10 09:35:00,46.9,25.0,30.16,SE,137,1.0,3.0,42,0.00,,,0.00,weatherlink.com 1.10,2013-05-10 17:35:00,
2013-05-10 09:50:00,48.0,25.0,30.16,SE,129,2.0,4.0,41,0.00,,,0.00,weatherlink.com 1.10,2013-05-10 17:50:00,
2013-05-10 10:05:00,48.7,25.0,30.16,ENE,70,0.0,3.0,40,0.00,,,0.00,weatherlink.com 1.10,2013-05-10 18:05:00,
2013-05-10 10:20:00,49.3,23.0,30.16,East,86,1.0,4.0,36,0.00,,,0.00,weatherlink.com 1.10,2013-05-10 18:20:00,
2013-05-10 10:35:00,49.4,24.0,30.16,WNW,286,1.0,3.0,37,0.00,,,0.00,weatherlink.com 1.10,2013-05-10 18:35:00,
2013-05-10 10:50:00,50.0,24.0,30.16,WSW,247,0.0,3.0,36,0.00,,,0.00,weatherlink.com 1.10,2013-05-10 18:50:00,
2013-05-10 11:05:00,50.7,22.0,30.15,SSE,162,3.0,6.0,32,0.00,,,0.00,weatherlink.com 1.10,2013-05-10 19:05:00,
2013-05-10 11:20:00,50.5,22.0,30.15,WNW,286,0.0,5.0,33,0.00,,,0.00,weatherlink.com 1.10,2013-05-10 19:20:00,
2013-05-10 11:35:00,51.7,22.0,30.15,South,188,1.0,3.0,31,0.00,,,0.00,weatherlink.com 1.10,2013-05-10 19:35:00,
2013-05-10 11:50:00,51.9,21.0,30.15,SE,146,2.0,4.0,30,0.00,,,0.00,weatherlink.com 1.10,2013-05-10 19:50:00,
2013-05-10 12:05:00,52.1,22.0,30.14,WSW,258,0.0,5.0,31,0.00,,,0.00,weatherlink.com 1.10,2013-05-10 20:05:00,
2013-05-10 12:20:00,52.6,23.0,30.14,SE,134,3.0,5.0,31,0.00,,,0.00,weatherlink.com 1.10,2013-05-10 20:20:00,
2013-05-10 12:36:00,53.0,22.0,30.13,ESE,110,0.0,3.0,30,0.00,,,0.00,weatherlink.com 1.10,2013-05-10 20:36:00,
2013-05-10 12:51:00,53.8,22.0,30.13,WNW,293,2.0,5.0,29,0.00,,,0.00,weatherlink.com 1.10,2013-05-10 20:51:00,
2013-05-10 13:06:00,54.1,23.0,30.12,South,169,0.0,4.0,30,0.00,,,0.00,weatherlink.com 1.10,2013-05-10 21:06:00,
2013-05-10 13:21:00,54.3,22.0,30.12,West,263,1.0,4.0,29,0.00,,,0.00,weatherlink.com 1.10,2013-05-10 21:21:00,
2013-05-10 13:36:00,55.2,22.0,30.11,SSW,194,0.0,4.0,28,0.00,,,0.00,weatherlink.com 1.10,2013-05-10 21:36:00,
2013-05-10 13:51:00,55.5,22.0,30.11,SSE,160,1.0,2.0,27,0.00,,,0.00,weatherlink.com 1.10,2013-05-10 21:51:00,
2013-05-10 14:06:00,56.2,22.0,30.10,ESE,120,0.0,5.0,27,0.00,,,0.00,weatherlink.com 1.10,2013-05-10 22:06:00,
2013-05-10 14:21:00,55.8,22.0,30.09,SE,124,1.0,3.0,27,0.00,,,0.00,weatherlink.com 1.10,2013-05-10 22:21:00,
2013-05-10 14:36:00,56.5,21.0,30.09,WNW,294,1.0,6.0,25,0.00,,,0.00,weatherlink.com 1.10,2013-05-10 22:36:00,
2013-05-10 14:51:00,57.3,22.0,30.09,ENE,58,0.0,4.0,26,0.00,,,0.00,weatherlink.com 1.10,2013-05-10 22:51:00,
2013-05-10 15:06:00,58.0,21.0,30.08,West,273,0.0,2.0,24,0.00,,,0.00,weatherlink.com 1.10,2013-05-10 23:06:00,
2013-05-10 15:21:00,58.3,21.0,30.07,SE,128,0.0,5.0,24,0.00,,,0.00,weatherlink.com 1.10,2013-05-10 23:21:00,
2013-05-10 15:36:00,57.5,23.0,30.07,West,270,2.0,4.0,26,0.00,,,0.00,weatherlink.com 1.10,2013-05-10 23:36:00,
2013-05-10 15:51:00,57.7,23.0,30.06,SSE,162,4.0,5.0,26,0.00,,,0.00,weatherlink.com 1.10,2013-05-10 23:51:00,
2013-05-10 16:06:00,58.1,22.0,30.06,West,272,0.0,3.0,25,0.00,,,0.00,weatherlink.com 1.10,2013-05-11 00:06:00,
2013-05-10 16:22:00,57.9,21.0,30.05,South,189,1.0,4.0,24,0.00,,,0.00,weatherlink.com 1.10,2013-05-11 00:22:00,
2013-05-10 16:36:00,58.0,19.0,30.05,South,191,0.0,6.0,22,0.00,,,0.00,weatherlink.com 1.10,2013-05-11 00:36:00,
2013-05-10 16:51:00,58.9,21.0,30.04,SSE,153,0.0,2.0,23,0.00,,,0.00,weatherlink.com 1.10,2013-05-11 00:51:00,
2013-05-10 17:06:00,57.9,20.0,30.03,East,98,1.0,4.0,23,0.00,,,0.00,weatherlink.com 1.10,2013-05-11 01:06:00,
2013-05-10 17:21:00,58.3,20.0,30.03,West,279,1.0,3.0,23,0.00,,,0.00,weatherlink.com 1.10,2013-05-11 01:21:00,
2013-05-10 17:36:00,57.3,20.0,30.02,NE,34,0.0,3.0,23,0.00,,,0.00,weatherlink.com 1.10,2013-05-11 01:36:00,
2013-05-10 17:51:00,58.0,19.0,30.02,WNW,293,1.0,2.0,22,0.00,,,0.00,weatherlink.com 1.10,2013-05-11 01:51:00,
2013-05-10 18:06:00,57.5,21.0,30.01,West,281,0.0,4.0,24,0.00,,,0.00,weatherlink.com 1.10,2013-05-11 02:06:00,
2013-05-10 18:21:00,57.0,19.0,30.01,NE,51,0.0,3.0,23,0.00,,,0.00,weatherlink.com 1.10,2013-05-11 02:21:00,
2013-05-10 18:36:00,56.3,20.0,30.01,West,276,0.0,2.0,24,0.00,,,0.00,weatherlink.com 1.10,2013-05-11 02:36:00,
2013-05-10 18:51:00,56.2,20.0,30.00,SSE,154,1.0,3.0,24,0.00,,,0.00,weatherlink.com 1.10,2013-05-11 02:51:00,
2013-05-10 19:06:00,56.2,22.0,30.00,SE,143,1.0,2.0,27,0.00,,,0.00,weatherlink.com 1.10,2013-05-11 03:06:00,
2013-05-10 19:22:00,55.9,19.0,29.99,SW,226,0.0,1.0,24,0.00,,,0.00,weatherlink.com 1.10,2013-05-11 03:22:00,
2013-05-10 19:38:00,55.6,23.0,29.99,SSE,153,0.0,0.0,28,0.00,,,0.00,weatherlink.com 1.10,2013-05-11 03:38:00,
2013-05-10 19:52:00,54.3,23.0,29.98,SSE,155,0.0,0.0,30,0.00,,,0.00,weatherlink.com 1.10,2013-05-11 03:52:00,
2013-05-10 20:07:00,52.3,28.0,29.98,SSE,155,0.0,0.0,39,0.00,,,0.00,weatherlink.com 1.10,2013-05-11 04:07:00,
2013-05-10 20:22:00,50.4,28.0,29.98,SSE,154,0.0,0.0,43,0.00,,,0.00,weatherlink.com 1.10,2013-05-11 04:22:00,
2013-05-10 20:37:00,51.1,25.0,29.97,SE,146,0.0,0.0,36,0.00,,,0.00,weatherlink.com 1.10,2013-05-11 04:37:00,
2013-05-10 20:52:00,52.4,22.0,29.97,ESE,107,0.0,1.0,30,0.00,,,0.00,weatherlink.com 1.10,2013-05-11 04:52:00,
2013-05-10 21:07:00,51.5,24.0,29.97,ESE,107,0.0,0.0,34,0.00,,,0.00,weatherlink.com 1.10,2013-05-11 05:07:00,
2013-05-10 21:22:00,49.7,27.0,29.96,ESE,107,0.0,0.0,41,0.00,,,0.00,weatherlink.com 1.10,2013-05-11 05:22:00,
2013-05-10 21:37:00,47.0,28.0,29.96,ESE,107,0.0,0.0,48,0.00,,,0.00,weatherlink.com 1.10,2013-05-11 05:37:00,
2013-05-10 21:52:00,44.5,28.0,29.96,ESE,107,0.0,0.0,53,0.00,,,0.00,weatherlink.com 1.10,2013-05-11 05:52:00,
2013-05-10 22:07:00,42.8,28.0,29.96,ESE,107,0.0,0.0,57,0.00,,,0.00,weatherlink.com 1.10,2013-05-11 06:07:00,
2013-05-10 22:22:00,41.4,28.0,29.96,ESE,107,0.0,0.0,59,0.00,,,0.00,weatherlink.com 1.10,2013-05-11 06:22:00,
2013-05-10 22:37:00,40.1,27.0,29.96,ESE,107,0.0,0.0,59,0.00,,,0.00,weatherlink.com 1.10,2013-05-11 06:37:00,
2013-05-10 22:52:00,39.5,28.0,29.95,ESE,107,0.0,0.0,64,0.00,,,0.00,weatherlink.com 1.10,2013-05-11 06:52:00,
2013-05-10 23:07:00,38.7,28.0,29.95,ESE,107,0.0,0.0,66,0.00,,,0.00,weatherlink.com 1.10,2013-05-11 07:07:00,
2013-05-10 23:22:00,39.2,27.0,29.95,ESE,107,0.0,1.0,63,0.00,,,0.00,weatherlink.com 1.10,2013-05-11 07:22:00,
2013-05-10 23:37:00,38.5,28.0,29.95,ESE,107,0.0,0.0,66,0.00,,,0.00,weatherlink.com 1.10,2013-05-11 07:37:00,
2013-05-10 23:52:00,38.6,28.0,29.94,ESE,107,0.0,1.0,65,0.00,,,0.00,weatherlink.com 1.10,2013-05-11 07:52:00,